• Join FlightAware (Why Join?)
  • Login
  • US Flag 
08:46AM EDT


 

Airport Tracker/Info


-or-


 

Live Flight TrackerFlight Track Log ✈ TAM3201 ✈ 28-Aug-2013 ✈ SBCF / CNF - SBSP / CGH

Flight Track Log - Related Links

Times and Time Zones

All times are in EDT time to prevent confusion due to time zone crossing. See the TAM3201 flight status page for this flight to view local times or setup timezone preferences in your user account.

Time Position Orientation Groundspeed Altitude Reporting Facility
EDT Latitude Longitude Course Direction KTS MPH feet Rate Location/Type
07:16AM -19.6310 -43.9720 137° Southeast 120 138  Level FlightAware
07:16AM -19.6440 -43.9590 137° Southeast 163 188 2,800 4,380 Climbing FlightAware
07:17AM -19.6560 -43.9500 145° Southeast 172 198 3,400 1,500 Climbing FlightAware
07:17AM -19.6690 -43.9470 168° South 191 220 3,700 1,200 Climbing FlightAware
07:17AM -19.6870 -43.9420 165° South 216 249 4,100 1,380 Climbing FlightAware
07:17AM -19.7000 -43.9390 168° South 231 266 4,500 3,000 Climbing FlightAware
07:18AM -19.7190 -43.9220 140° Southeast 234 269 5,900 3,600 Climbing FlightAware
07:18AM -19.7210 -43.9130 103° East 234 269 6,300 3,060 Climbing FlightAware
07:18AM -19.7100 -43.8850 67° East 238 274 7,600 2,760 Climbing FlightAware
07:18AM -19.7050 -43.8820 29° Northeast 238 274 7,800 1,980 Climbing FlightAware
07:19AM -19.6960 -43.8800 12° North 242 278 8,100 1,380 Climbing FlightAware
07:19AM -19.6790 -43.8830 351° North 239 275 8,500 2,100 Climbing FlightAware
07:19AM -19.6500 -43.8950 339° North 274 315 9,500 2,580 Climbing FlightAware
07:20AM -19.6070 -43.9150 336° Northwest 298 343 10,900 1,980 Climbing FlightAware
07:20AM -19.5940 -43.9340 306° West 314 361 11,200 2,400 Climbing FlightAware
07:21AM -19.5750 -43.9940 289° West 324 373 13,200 3,000 Climbing FlightAware
07:21AM -19.5680 -44.0230 284° West 331 381 14,200 2,880 Climbing FlightAware
07:21AM -19.5700 -44.0460 265° West 340 391 14,800 3,120 Climbing FlightAware
07:22AM -19.5990 -44.0990 240° Southwest 341 392 16,800 2,700 Climbing FlightAware
07:22AM -19.6290 -44.1430 234° Southwest 355 409 18,000 2,460 Climbing FlightAware
07:23AM -19.6670 -44.1960 233° Southwest 357 411 19,700 2,280 Climbing FlightAware
07:24AM -19.7000 -44.2400 231° Southwest 368 423 20,700 2,580 Climbing FlightAware
07:24AM -19.7430 -44.2960 231° Southwest 350 403 22,900 2,400 Climbing FlightAware
07:25AM -19.7770 -44.3400 231° Southwest 367 422 23,500 1,080 Climbing FlightAware
07:25AM -19.8120 -44.3880 232° Southwest 385 443 24,100 1,320 Climbing FlightAware
07:26AM -19.8550 -44.4440 231° Southwest 391 450 25,100 1,860 Climbing FlightAware
07:27AM -19.8940 -44.4960 231° Southwest 387 445 26,400 2,100 Climbing FlightAware
07:27AM -19.9380 -44.5540 231° Southwest 384 442 27,700 1,620 Climbing FlightAware
07:28AM -19.9750 -44.6040 232° Southwest 391 450 28,400 1,080 Climbing FlightAware
07:28AM -20.0230 -44.6690 232° Southwest 401 461 29,100 1,140 Climbing FlightAware
07:29AM -20.0700 -44.7300 231° Southwest 407 468 29,900 1,080 Climbing FlightAware
07:30AM -20.1040 -44.7770 232° Southwest 409 471 30,400 1,200 Climbing FlightAware
07:30AM -20.1520 -44.8400 231° Southwest 413 475 31,300 1,140 Climbing FlightAware
07:31AM -20.1930 -44.8950 232° Southwest 420 483 31,800 900 Climbing FlightAware
07:32AM -20.2430 -44.9620 231° Southwest 423 487 32,500 1,140 Climbing FlightAware
07:32AM -20.2860 -45.0190 231° Southwest 422 486 33,300 1,140 Climbing FlightAware
07:33AM -20.3280 -45.0760 232° Southwest 427 491 33,800 1,200 Climbing FlightAware
07:33AM -20.3840 -45.1510 231° Southwest 422 486 34,900 1,560 Climbing FlightAware
07:34AM -20.4250 -45.2060 231° Southwest 405 466 35,900 900 Climbing FlightAware
07:35AM -20.4670 -45.2610 231° Southwest 396 456 36,000 60 Climbing FlightAware
07:35AM -20.5120 -45.3230 232° Southwest 402 463 36,000  Level FlightAware
07:36AM -20.5530 -45.3790 232° Southwest 405 466 36,000  Level FlightAware
07:36AM -20.5940 -45.4340 231° Southwest 404 465 36,000  Level FlightAware
07:37AM -20.6340 -45.4870 231° Southwest 403 464 36,000  Level FlightAware
07:38AM -20.6790 -45.5490 232° Southwest 402 463 36,000  Level FlightAware
07:38AM -20.7190 -45.6030 232° Southwest 403 464 36,000  Level FlightAware
07:39AM -20.7560 -45.6540 232° Southwest 403 464 36,000  Level FlightAware
07:39AM -20.7960 -45.7070 231° Southwest 404 465 36,000  Level FlightAware
07:40AM -20.8390 -45.7660 232° Southwest 404 465 36,000  Level FlightAware
07:41AM -20.8790 -45.8200 232° Southwest 404 465 36,000  Level FlightAware
07:41AM -20.9200 -45.8760 232° Southwest 402 463 36,000  Level FlightAware
07:42AM -20.9610 -45.9320 232° Southwest 401 461 36,000  Level FlightAware
07:42AM -21.0020 -45.9880 232° Southwest 399 459 36,000  Level FlightAware
07:43AM -21.0390 -46.0380 232° Southwest 399 459 36,000  Level FlightAware
07:43AM -21.0770 -46.0890 231° Southwest 399 459 36,000  Level FlightAware
07:44AM -21.1210 -46.1510 233° Southwest 399 459 36,000  Level FlightAware
07:45AM -21.1620 -46.2070 232° Southwest 398 458 36,000  Level FlightAware
07:45AM -21.1990 -46.2570 232° Southwest 397 457 36,000  Level FlightAware
07:46AM -21.2390 -46.3120 232° Southwest 396 456 36,000  Level FlightAware
07:46AM -21.2830 -46.3720 232° Southwest 396 456 36,000  Level FlightAware
07:47AM -21.3180 -46.4200 232° Southwest 394 453 36,000  Level FlightAware
07:48AM -21.3610 -46.4790 232° Southwest 393 452 36,000  Level FlightAware
07:48AM -21.4060 -46.5410 232° Southwest 391 450 36,000  Level FlightAware
07:49AM -21.4410 -46.5880 231° Southwest 394 453 36,000  Level FlightAware
07:49AM -21.5000 -46.6320 215° Southwest 406 467 36,000  Level FlightAware
07:50AM -21.5560 -46.6720 214° Southwest 401 461 36,000  Level FlightAware
07:51AM -21.6060 -46.7070 213° Southwest 400 460 36,000  Level FlightAware
07:51AM -21.6610 -46.7460 213° Southwest 399 459 36,000  Level FlightAware
07:52AM -21.7170 -46.7860 214° Southwest 398 458 36,000  Level FlightAware
07:52AM -21.7730 -46.8260 214° Southwest 398 458 36,000  Level FlightAware
07:53AM -21.8220 -46.8600 213° Southwest 398 458 36,000  Level FlightAware
07:54AM -21.8770 -46.9000 214° Southwest 398 458 36,000  Level FlightAware
07:54AM -21.9320 -46.9390 213° Southwest 399 459 36,000  Level FlightAware
07:55AM -21.9860 -46.9770 213° Southwest 401 461 36,000  Level FlightAware
07:55AM -22.0350 -47.0120 214° Southwest 401 461 36,000  Level FlightAware
07:56AM -22.0900 -47.0520 214° Southwest 401 461 36,000 -120 Level FlightAware
07:56AM -22.1470 -47.0920 213° Southwest 401 461 35,900 -1,260 Descending FlightAware
07:57AM -22.1980 -47.1290 214° Southwest 399 459 34,600 -2,280 Descending FlightAware
07:58AM -22.2460 -47.1630 213° Southwest 397 457 33,400 -2,280 Descending FlightAware
07:58AM -22.3060 -47.2060 214° Southwest 392 451 31,900 -2,280 Descending FlightAware
07:59AM -22.3610 -47.2460 214° Southwest 385 443 30,500 -2,280 Descending FlightAware
07:59AM -22.4120 -47.2820 213° Southwest 379 436 29,300 -2,220 Descending FlightAware
08:00AM -22.4640 -47.3200 214° Southwest 370 426 28,000 -2,100 Descending FlightAware
08:01AM -22.5130 -47.3550 213° Southwest 364 419 26,800 -2,100 Descending FlightAware
08:01AM -22.5590 -47.3890 214° Southwest 362 417 25,600 -2,100 Descending FlightAware
08:02AM -22.6110 -47.4260 213° Southwest 360 414 24,400 -2,040 Descending FlightAware
08:02AM -22.6590 -47.4610 214° Southwest 358 412 23,200 -2,040 Descending FlightAware
08:03AM -22.7110 -47.4980 213° Southwest 355 409 22,000 -1,920 Descending FlightAware
08:04AM -22.7600 -47.5340 214° Southwest 349 402 20,800 -1,920 Descending FlightAware
08:04AM -22.8000 -47.5500 200° South 352 405 20,000 -1,860 Descending FlightAware
08:04AM -22.8400 -47.5390 166° South 353 406 19,200 -1,860 Descending FlightAware
08:05AM -22.8880 -47.4900 137° Southeast 361 415 18,000 -1,860 Descending FlightAware
08:06AM -22.9290 -47.4450 135° Southeast 354 407 17,000 -1,740 Descending FlightAware
08:06AM -22.9720 -47.4050 139° Southeast 344 396 16,000 -1,680 Descending FlightAware
08:07AM -23.0140 -47.3650 139° Southeast 336 387 15,000 -1,680 Descending FlightAware
08:07AM -23.0540 -47.3290 140° Southeast 321 369 14,100 -1,260 Descending FlightAware
08:08AM -23.0940 -47.2920 140° Southeast 304 350 13,600 -720 Descending FlightAware
08:09AM -23.1360 -47.2520 139° Southeast 276 318 13,200 -600 Descending FlightAware
08:09AM -23.1680 -47.2220 139° Southeast 256 295 12,900 -600 Descending FlightAware
08:10AM -23.1990 -47.1930 139° Southeast 241 277 12,500 -840 Descending FlightAware
08:10AM -23.2290 -47.1650 139° Southeast 231 266 11,900 -1,020 Descending FlightAware
08:11AM -23.2580 -47.1390 141° Southeast 217 250 11,300 -1,200 Descending FlightAware
08:12AM -23.2820 -47.1160 139° Southeast 219 252 10,600 -1,380 Descending FlightAware
08:12AM -23.3050 -47.0940 139° Southeast 223 257 10,000 -1,200 Descending FlightAware
08:12AM -23.3220 -47.0790 141° Southeast 229 264 9,600 -1,020 Descending FlightAware
08:13AM -23.3330 -47.0690 140° Southeast 217 250 9,400 -1,140 Descending FlightAware
08:13AM -23.3510 -47.0540 143° Southeast 221 254 9,000 -1,020 Descending FlightAware
08:13AM -23.3590 -47.0500 155° Southeast 211 243 8,900 -600 Descending FlightAware
08:13AM -23.3790 -47.0410 158° South 221 254 8,700 -480 Descending FlightAware
08:14AM -23.3960 -47.0340 159° South 212 244 8,600 -480 Descending FlightAware
08:14AM -23.4130 -47.0280 162° South 210 242 8,400 -600 Descending FlightAware
08:15AM -23.4450 -47.0150 160° South 205 236 8,100 -660 Descending FlightAware
08:15AM -23.4540 -47.0100 153° Southeast 205 236 8,000 -600 Descending FlightAware
08:15AM -23.4610 -47.0030 137° Southeast 215 247 7,900 -300 Descending FlightAware
08:15AM -23.4650 -46.9920 112° Southeast 221 254 7,900  Level FlightAware
08:15AM -23.4650 -46.9860 90° East 227 261 7,900 -480 Level FlightAware
08:16AM -23.4580 -46.9630 72° East 238 274 7,700 -600 Descending FlightAware
08:16AM -23.4510 -46.9450 67° East 237 273 7,500 -900 Descending FlightAware
08:16AM -23.4420 -46.9250 64° Northeast 233 268 7,200 -1,200 Descending FlightAware
08:16AM -23.4360 -46.9090 68° East 233 268 6,900 -840 Descending FlightAware
08:17AM -23.4210 -46.8740 65° Northeast 216 249 6,500 -600 Descending FlightAware
08:17AM -23.4190 -46.8630 79° East 208 239 6,500 -180 Level FlightAware
08:18AM -23.4280 -46.8400 113° Southeast 181 208 6,400 -300 Descending FlightAware
08:18AM -23.4390 -46.8260 131° Southeast 180 207 6,300 -600 Descending FlightAware
08:18AM -23.4500 -46.8120 131° Southeast 180 207 6,000 -840 Descending FlightAware
08:19AM -23.4580 -46.8000 126° Southeast 178 205 5,800 -600 Descending FlightAware
08:19AM -23.4660 -46.7890 128° Southeast 175 201 5,700 -600 Descending FlightAware
08:19AM -23.4730 -46.7770 122° Southeast 174 200 5,500 -660 Descending FlightAware
08:19AM -23.4810 -46.7600 117° Southeast 172 198 5,300 -600 Descending FlightAware
08:20AM -23.4850 -46.7560 137° Southeast 173 199 5,200 -780 Descending FlightAware
08:20AM -23.4910 -46.7510 143° Southeast 175 201 5,100 -660 Descending FlightAware
08:20AM -23.5040 -46.7410 145° Southeast 173 199 4,900 -780 Descending FlightAware
08:20AM -23.5120 -46.7360 150° Southeast 174 200 4,700 -960 Descending FlightAware
08:21AM -23.5260 -46.7260 147° Southeast 158 182 4,400 -900 Descending FlightAware
08:21AM -23.5380 -46.7180 149° Southeast 137 158 4,100 -780 Descending FlightAware
08:21AM -23.5480 -46.7110 147° Southeast 129 148 3,900 -720 Descending FlightAware
08:22AM -23.5600 -46.7030 149° Southeast 126 145 3,600 -720 Descending FlightAware
08:22AM -23.5700 -46.6960 147° Southeast 126 145 3,400 -660 Descending FlightAware
08:22AM -23.5790 -46.6890 145° Southeast 129 148 3,200 -780 Descending FlightAware
08:23AM -23.5900 -46.6820 150° Southeast 126 145 2,900 -720 Descending FlightAware
08:23AM -23.6010 -46.6740 146° Southeast 126 145 2,700 -660 Descending FlightAware
08:23AM -23.6090 -46.6690 150° Southeast 125 144 2,500 -540 Descending FlightAware
08:24AM -23.6140 -46.6650 144° Southeast 125 144 2,400 -420 Descending FlightAware
08:24AM -23.6260 -46.6570 149° Southeast 123 142 2,200 -480 Descending FlightAware
08:24AM -23.6310 -46.6540 151° Southeast 117 135 -5,280 Descending FlightAware
08:25AM -23.6320 -46.6550 222° Southwest 117 135  Level FlightAware
08:25AM -23.6300 -46.6550 360° North 117 135  Level FlightAware
08:26AM -23.6380 -46.6440 128° Southeast 117 135  Level FlightAware
08:28AM -23.6267 -46.6554 317° Northwest  Level Estimated
08:29AM -23.6267 -46.6554 114° Southeast  Level Estimated
08:30AM -23.6290 -46.6560 114° Southeast  Level FlightAware